sensor_id;sensor_type;location;lat;lon;timestamp;pressure;altitude;pressure_sealevel;temperature;humidity
75497;BME280;64074;47.540;19.072;2022-12-19T00:01:12;102999.75;;;-2.49;82.59
75497;BME280;64074;47.540;19.072;2022-12-19T00:04:26;103000.75;;;-2.50;84.23
75497;BME280;64074;47.540;19.072;2022-12-19T00:07:47;103003.13;;;-2.46;83.97
75497;BME280;64074;47.540;19.072;2022-12-19T00:11:12;103013.88;;;-2.48;84.22
75497;BME280;64074;47.540;19.072;2022-12-19T00:14:27;103012.09;;;-2.47;85.92
75497;BME280;64074;47.540;19.072;2022-12-19T00:17:49;103008.56;;;-2.48;85.42
75497;BME280;64074;47.540;19.072;2022-12-19T00:21:15;103010.13;;;-2.45;86.22
75497;BME280;64074;47.540;19.072;2022-12-19T00:24:36;103005.78;;;-2.46;85.95
75497;BME280;64074;47.540;19.072;2022-12-19T00:27:57;103011.09;;;-2.46;85.63
75497;BME280;64074;47.540;19.072;2022-12-19T00:31:22;103013.63;;;-2.45;86.00
75497;BME280;64074;47.540;19.072;2022-12-19T00:34:31;103008.72;;;-2.40;85.31
75497;BME280;64074;47.540;19.072;2022-12-19T00:38:02;103006.19;;;-2.41;85.62
75497;BME280;64074;47.540;19.072;2022-12-19T00:41:27;103014.13;;;-2.32;85.39
75497;BME280;64074;47.540;19.072;2022-12-19T00:44:50;103011.94;;;-2.46;86.28
75497;BME280;64074;47.540;19.072;2022-12-19T00:48:06;103004.97;;;-2.47;85.80
75497;BME280;64074;47.540;19.072;2022-12-19T00:51:35;103007.66;;;-2.86;86.61
75497;BME280;64074;47.540;19.072;2022-12-19T00:54:49;103005.97;;;-2.77;86.93
75497;BME280;64074;47.540;19.072;2022-12-19T00:58:14;102999.69;;;-2.86;87.02
75497;BME280;64074;47.540;19.072;2022-12-19T01:01:28;102992.28;;;-2.82;87.20
75497;BME280;64074;47.540;19.072;2022-12-19T01:04:33;102993.38;;;-2.65;86.73
75497;BME280;64074;47.540;19.072;2022-12-19T01:07:51;102998.25;;;-2.61;87.17
75497;BME280;64074;47.540;19.072;2022-12-19T01:11:02;102996.00;;;-2.46;86.92
75497;BME280;64074;47.540;19.072;2022-12-19T01:14:20;102994.59;;;-2.50;85.98
75497;BME280;64074;47.540;19.072;2022-12-19T01:17:41;102985.25;;;-2.44;86.04
75497;BME280;64074;47.540;19.072;2022-12-19T01:20:59;102985.09;;;-2.43;86.71
75497;BME280;64074;47.540;19.072;2022-12-19T01:24:08;102979.69;;;-2.24;86.52
75497;BME280;64074;47.540;19.072;2022-12-19T01:27:13;102972.00;;;-2.17;85.44
75497;BME280;64074;47.540;19.072;2022-12-19T01:30:22;102965.34;;;-2.03;85.14
75497;BME280;64074;47.540;19.072;2022-12-19T01:33:34;102957.34;;;-1.94;85.11
75497;BME280;64074;47.540;19.072;2022-12-19T01:36:47;102947.81;;;-2.24;85.04
75497;BME280;64074;47.540;19.072;2022-12-19T01:39:51;102943.16;;;-2.12;86.25
75497;BME280;64074;47.540;19.072;2022-12-19T01:43:00;102949.84;;;-2.08;86.05
75497;BME280;64074;47.540;19.072;2022-12-19T01:46:38;102936.41;;;-2.06;85.58
75497;BME280;64074;47.540;19.072;2022-12-19T01:49:42;102933.91;;;-2.08;84.59
75497;BME280;64074;47.540;19.072;2022-12-19T01:52:51;102936.69;;;-2.09;85.14
75497;BME280;64074;47.540;19.072;2022-12-19T01:56:01;102941.94;;;-2.00;84.88
75497;BME280;64074;47.540;19.072;2022-12-19T01:59:40;102934.69;;;-1.98;85.54
75497;BME280;64074;47.540;19.072;2022-12-19T02:02:55;102924.59;;;-1.94;85.21
75497;BME280;64074;47.540;19.072;2022-12-19T02:06:07;102930.91;;;-1.95;85.61
75497;BME280;64074;47.540;19.072;2022-12-19T02:09:19;102932.56;;;-1.94;85.06
75497;BME280;64074;47.540;19.072;2022-12-19T02:12:39;102941.25;;;-2.20;85.37
75497;BME280;64074;47.540;19.072;2022-12-19T02:16:23;102944.44;;;-2.16;86.56
75497;BME280;64074;47.540;19.072;2022-12-19T02:31:37;102947.78;;;-2.14;87.24
75497;BME280;64074;47.540;19.072;2022-12-19T02:42:03;102943.91;;;-2.20;86.30
75497;BME280;64074;47.540;19.072;2022-12-19T02:45:39;102954.59;;;-2.39;87.13
75497;BME280;64074;47.540;19.072;2022-12-19T02:48:53;102951.66;;;-2.08;86.33
75497;BME280;64074;47.540;19.072;2022-12-19T02:55:52;102962.28;;;-2.08;86.25
75497;BME280;64074;47.540;19.072;2022-12-19T02:59:16;102961.03;;;-2.41;87.49
75497;BME280;64074;47.540;19.072;2022-12-19T03:06:13;102948.53;;;-1.94;86.18
75497;BME280;64074;47.540;19.072;2022-12-19T03:09:43;102939.88;;;-1.96;84.74
75497;BME280;64074;47.540;19.072;2022-12-19T03:13:31;102936.38;;;-1.79;84.52
75497;BME280;64074;47.540;19.072;2022-12-19T03:16:43;102940.22;;;-1.64;85.22
75497;BME280;64074;47.540;19.072;2022-12-19T03:20:09;102930.41;;;-1.63;84.54
75497;BME280;64074;47.540;19.072;2022-12-19T03:23:24;102918.00;;;-1.55;84.43
75497;BME280;64074;47.540;19.072;2022-12-19T03:26:59;102914.00;;;-1.59;85.29
75497;BME280;64074;47.540;19.072;2022-12-19T03:30:14;102917.72;;;-1.51;84.47
75497;BME280;64074;47.540;19.072;2022-12-19T03:33:33;102907.47;;;-1.46;84.90
75497;BME280;64074;47.540;19.072;2022-12-19T03:36:56;102907.47;;;-1.46;84.63
75497;BME280;64074;47.540;19.072;2022-12-19T03:40:21;102904.66;;;-1.45;84.09
75497;BME280;64074;47.540;19.072;2022-12-19T03:43:40;102921.50;;;-1.36;83.42
75497;BME280;64074;47.540;19.072;2022-12-19T03:47:13;102910.19;;;-1.38;83.35
75497;BME280;64074;47.540;19.072;2022-12-19T03:50:31;102915.88;;;-1.33;83.75
75497;BME280;64074;47.540;19.072;2022-12-19T03:54:07;102923.25;;;-1.27;84.05
75497;BME280;64074;47.540;19.072;2022-12-19T03:57:45;102924.25;;;-1.28;83.14
75497;BME280;64074;47.540;19.072;2022-12-19T04:00:56;102925.31;;;-1.21;83.78
75497;BME280;64074;47.540;19.072;2022-12-19T04:04:05;102925.31;;;-1.21;83.69
75497;BME280;64074;47.540;19.072;2022-12-19T04:07:21;102916.25;;;-1.28;83.60
75497;BME280;64074;47.540;19.072;2022-12-19T04:10:51;102912.22;;;-1.32;83.27
75497;BME280;64074;47.540;19.072;2022-12-19T04:14:14;102914.41;;;-1.10;83.84
75497;BME280;64074;47.540;19.072;2022-12-19T04:17:54;102922.19;;;-1.16;83.46
75497;BME280;64074;47.540;19.072;2022-12-19T04:21:10;102916.25;;;-1.10;83.21
75497;BME280;64074;47.540;19.072;2022-12-19T04:24:29;102920.25;;;-1.06;83.39
75497;BME280;64074;47.540;19.072;2022-12-19T04:27:46;102923.53;;;-1.12;82.96
75497;BME280;64074;47.540;19.072;2022-12-19T04:30:57;102916.94;;;-1.26;83.66
75497;BME280;64074;47.540;19.072;2022-12-19T04:34:08;102924.69;;;-1.15;83.64
75497;BME280;64074;47.540;19.072;2022-12-19T04:37:38;102926.06;;;-1.11;82.58
75497;BME280;64074;47.540;19.072;2022-12-19T04:40:51;102924.13;;;-1.01;83.33
75497;BME280;64074;47.540;19.072;2022-12-19T04:43:54;102914.72;;;-1.13;82.60
75497;BME280;64074;47.540;19.072;2022-12-19T04:47:07;102919.38;;;-1.15;84.19
75497;BME280;64074;47.540;19.072;2022-12-19T04:50:16;102912.28;;;-1.06;83.32
75497;BME280;64074;47.540;19.072;2022-12-19T04:53:37;102911.69;;;-1.18;83.28
75497;BME280;64074;47.540;19.072;2022-12-19T04:56:51;102925.16;;;-1.19;83.09
75497;BME280;64074;47.540;19.072;2022-12-19T04:59:56;102922.09;;;-1.25;83.43
75497;BME280;64074;47.540;19.072;2022-12-19T05:03:04;102924.59;;;-1.05;83.08
75497;BME280;64074;47.540;19.072;2022-12-19T05:06:13;102913.19;;;-0.98;82.97
75497;BME280;64074;47.540;19.072;2022-12-19T05:09:31;102912.56;;;-0.91;82.93
75497;BME280;64074;47.540;19.072;2022-12-19T05:12:58;102923.53;;;-0.95;82.60
75497;BME280;64074;47.540;19.072;2022-12-19T05:16:12;102923.59;;;-1.04;82.40
75497;BME280;64074;47.540;19.072;2022-12-19T05:19:17;102926.41;;;-1.06;83.95
75497;BME280;64074;47.540;19.072;2022-12-19T05:22:29;102917.59;;;-1.06;83.03
75497;BME280;64074;47.540;19.072;2022-12-19T05:26:17;102918.13;;;-1.03;83.98
75497;BME280;64074;47.540;19.072;2022-12-19T05:29:25;102913.41;;;-1.09;84.18
75497;BME280;64074;47.540;19.072;2022-12-19T05:32:36;102912.56;;;-0.91;84.24
75497;BME280;64074;47.540;19.072;2022-12-19T05:35:50;102903.53;;;-0.73;82.70
75497;BME280;64074;47.540;19.072;2022-12-19T05:39:09;102901.06;;;-0.66;82.69
75497;BME280;64074;47.540;19.072;2022-12-19T05:42:28;102909.97;;;-0.75;82.63
75497;BME280;64074;47.540;19.072;2022-12-19T05:45:50;102924.44;;;-0.78;83.17
75497;BME280;64074;47.540;19.072;2022-12-19T05:49:16;102916.06;;;-0.65;82.86
75497;BME280;64074;47.540;19.072;2022-12-19T05:52:27;102901.06;;;-0.66;82.99
75497;BME280;64074;47.540;19.072;2022-12-19T05:56:09;102902.06;;;-0.67;83.54
75497;BME280;64074;47.540;19.072;2022-12-19T05:59:26;102899.44;;;-0.59;83.12
75497;BME280;64074;47.540;19.072;2022-12-19T06:02:43;102903.75;;;-0.58;82.74
75497;BME280;64074;47.540;19.072;2022-12-19T06:06:19;102899.63;;;-0.52;82.83
75497;BME280;64074;47.540;19.072;2022-12-19T06:09:34;102916.09;;;-0.57;83.35
75497;BME280;64074;47.540;19.072;2022-12-19T06:12:51;102921.91;;;-0.62;83.51
75497;BME280;64074;47.540;19.072;2022-12-19T06:15:58;102918.13;;;-0.51;83.64
75497;BME280;64074;47.540;19.072;2022-12-19T06:19:07;102915.31;;;-0.49;82.90
75497;BME280;64074;47.540;19.072;2022-12-19T06:22:38;102926.25;;;-0.52;83.45
75497;BME280;64074;47.540;19.072;2022-12-19T06:25:47;102928.53;;;-0.66;84.17
75497;BME280;64074;47.540;19.072;2022-12-19T06:28:59;102917.88;;;-0.66;83.80
75497;BME280;64074;47.540;19.072;2022-12-19T06:32:35;102924.56;;;-0.62;83.83
75497;BME280;64074;47.540;19.072;2022-12-19T06:35:46;102929.00;;;-0.44;83.06
75497;BME280;64074;47.540;19.072;2022-12-19T06:39:18;102937.59;;;-0.50;83.42
75497;BME280;64074;47.540;19.072;2022-12-19T06:42:28;102929.50;;;-0.41;82.60
75497;BME280;64074;47.540;19.072;2022-12-19T06:45:46;102933.03;;;-0.32;82.86
75497;BME280;64074;47.540;19.072;2022-12-19T06:49:16;102934.72;;;-0.31;83.19
75497;BME280;64074;47.540;19.072;2022-12-19T06:53:12;102930.88;;;-0.28;82.55
75497;BME280;64074;47.540;19.072;2022-12-19T06:56:17;102937.09;;;-0.54;83.60
75497;BME280;64074;47.540;19.072;2022-12-19T06:59:25;102925.09;;;-0.50;83.46
75497;BME280;64074;47.540;19.072;2022-12-19T07:02:34;102931.72;;;-0.62;83.11
75497;BME280;64074;47.540;19.072;2022-12-19T07:05:56;102941.91;;;-0.57;83.84
75497;BME280;64074;47.540;19.072;2022-12-19T07:09:25;102941.66;;;-0.46;82.96
75497;BME280;64074;47.540;19.072;2022-12-19T07:12:51;102942.69;;;-0.65;83.54
75497;BME280;64074;47.540;19.072;2022-12-19T07:16:06;102939.97;;;-0.47;83.16
75497;BME280;64074;47.540;19.072;2022-12-19T07:19:23;102949.38;;;-0.61;83.69
75497;BME280;64074;47.540;19.072;2022-12-19T07:22:32;102945.34;;;-0.65;83.94
75497;BME280;64074;47.540;19.072;2022-12-19T07:25:40;102942.56;;;-0.55;83.33
75497;BME280;64074;47.540;19.072;2022-12-19T07:28:47;102939.50;;;-0.69;83.27
75497;BME280;64074;47.540;19.072;2022-12-19T07:32:01;102941.66;;;-0.72;81.27
75497;BME280;64074;47.540;19.072;2022-12-19T07:35:07;102947.38;;;-0.85;81.60
75497;BME280;64074;47.540;19.072;2022-12-19T07:38:13;102947.97;;;-0.73;80.71
75497;BME280;64074;47.540;19.072;2022-12-19T07:41:22;102942.69;;;-0.65;79.28
75497;BME280;64074;47.540;19.072;2022-12-19T07:48:57;102936.53;;;-0.66;77.68
75497;BME280;64074;47.540;19.072;2022-12-19T07:52:10;102940.53;;;-0.62;76.52
75497;BME280;64074;47.540;19.072;2022-12-19T07:55:18;102947.50;;;-0.69;77.48
75497;BME280;64074;47.540;19.072;2022-12-19T07:58:30;102959.50;;;-0.90;76.68
75497;BME280;64074;47.540;19.072;2022-12-19T08:01:39;102974.03;;;-1.03;76.66
75497;BME280;64074;47.540;19.072;2022-12-19T08:05:00;102966.72;;;-1.01;76.17
75497;BME280;64074;47.540;19.072;2022-12-19T08:08:04;102962.22;;;-1.00;75.13
75497;BME280;64074;47.540;19.072;2022-12-19T08:11:12;102966.13;;;-0.95;74.65
75497;BME280;64074;47.540;19.072;2022-12-19T08:14:22;102980.22;;;-0.76;74.77
75497;BME280;64074;47.540;19.072;2022-12-19T08:17:35;102975.44;;;-0.73;73.53
75497;BME280;64074;47.540;19.072;2022-12-19T08:20:43;102982.56;;;-0.99;72.45
75497;BME280;64074;47.540;19.072;2022-12-19T08:23:54;102984.09;;;-0.97;71.74
75497;BME280;64074;47.540;19.072;2022-12-19T08:27:07;102974.22;;;-0.78;71.65
75497;BME280;64074;47.540;19.072;2022-12-19T08:30:19;102975.53;;;-0.82;71.70
75497;BME280;64074;47.540;19.072;2022-12-19T08:33:42;102981.69;;;-0.56;71.49
75497;BME280;64074;47.540;19.072;2022-12-19T08:36:54;102963.97;;;-0.47;71.34
75497;BME280;64074;47.540;19.072;2022-12-19T08:40:23;102963.78;;;-0.46;71.86
75497;BME280;64074;47.540;19.072;2022-12-19T08:48:31;102954.41;;;-0.50;71.44
75497;BME280;64074;47.540;19.072;2022-12-19T08:51:41;102959.91;;;-0.51;71.54
75497;BME280;64074;47.540;19.072;2022-12-19T08:54:54;102941.94;;;-0.15;72.40
75497;BME280;64074;47.540;19.072;2022-12-19T08:58:04;102936.28;;;-0.12;71.59
75497;BME280;64074;47.540;19.072;2022-12-19T09:01:27;102950.22;;;-0.26;71.82
75497;BME280;64074;47.540;19.072;2022-12-19T09:14:16;102946.19;;;0.04;70.49
75497;BME280;64074;47.540;19.072;2022-12-19T09:17:31;102933.88;;;-0.32;70.59
75497;BME280;64074;47.540;19.072;2022-12-19T09:20:52;102941.00;;;-0.40;70.05
75497;BME280;64074;47.540;19.072;2022-12-19T09:24:07;102951.47;;;-0.47;71.14
75497;BME280;64074;47.540;19.072;2022-12-19T09:27:29;102956.56;;;-0.53;70.47
75497;BME280;64074;47.540;19.072;2022-12-19T09:31:09;102972.84;;;-0.31;70.71
75497;BME280;64074;47.540;19.072;2022-12-19T09:34:16;102957.03;;;-0.32;70.80
75497;BME280;64074;47.540;19.072;2022-12-19T09:37:20;102947.88;;;-0.29;70.67
75497;BME280;64074;47.540;19.072;2022-12-19T09:40:26;102934.53;;;-0.29;70.97
75497;BME280;64074;47.540;19.072;2022-12-19T09:43:49;102927.66;;;-0.06;70.38
75497;BME280;64074;47.540;19.072;2022-12-19T09:47:20;102930.38;;;0.18;68.93
75497;BME280;64074;47.540;19.072;2022-12-19T09:50:41;102915.56;;;0.16;69.34
75497;BME280;64074;47.540;19.072;2022-12-19T09:54:06;102911.72;;;0.10;68.66
75497;BME280;64074;47.540;19.072;2022-12-19T09:57:33;102916.31;;;-0.08;69.41
75497;BME280;64074;47.540;19.072;2022-12-19T10:00:57;102910.31;;;-0.10;69.88
75497;BME280;64074;47.540;19.072;2022-12-19T10:04:11;102902.88;;;0.02;69.49
75497;BME280;64074;47.540;19.072;2022-12-19T10:07:21;102896.09;;;0.32;68.77
75497;BME280;64074;47.540;19.072;2022-12-19T10:26:09;102906.25;;;1.26;65.79
75497;BME280;64074;47.540;19.072;2022-12-19T10:29:33;102900.56;;;1.29;65.90
75497;BME280;64074;47.540;19.072;2022-12-19T10:36:23;102878.66;;;1.33;65.10
75497;BME280;64074;47.540;19.072;2022-12-19T10:44:06;102886.13;;;1.54;65.65
75497;BME280;64074;47.540;19.072;2022-12-19T10:48:00;102868.47;;;1.76;64.08
75497;BME280;64074;47.540;19.072;2022-12-19T10:51:26;102862.97;;;1.77;64.08
75497;BME280;64074;47.540;19.072;2022-12-19T10:57:50;102866.53;;;1.62;64.14
75497;BME280;64074;47.540;19.072;2022-12-19T11:04:38;102856.13;;;1.75;65.00
75497;BME280;64074;47.540;19.072;2022-12-19T11:08:10;102844.00;;;1.87;64.85
75497;BME280;64074;47.540;19.072;2022-12-19T11:11:23;102844.19;;;1.85;63.93
75497;BME280;64074;47.540;19.072;2022-12-19T11:18:44;102851.16;;;1.64;64.22
75497;BME280;64074;47.540;19.072;2022-12-19T11:22:30;102857.16;;;1.18;65.62
75497;BME280;64074;47.540;19.072;2022-12-19T11:26:03;102844.84;;;1.48;64.28
75497;BME280;64074;47.540;19.072;2022-12-19T11:29:47;102832.53;;;1.39;64.74
75497;BME280;64074;47.540;19.072;2022-12-19T11:33:16;102829.88;;;1.70;64.96
75497;BME280;64074;47.540;19.072;2022-12-19T11:39:56;102825.53;;;1.77;63.97
75497;BME280;64074;47.540;19.072;2022-12-19T11:43:36;102815.78;;;1.45;64.76
75497;BME280;64074;47.540;19.072;2022-12-19T11:47:29;102804.00;;;1.32;65.53
75497;BME280;64074;47.540;19.072;2022-12-19T11:50:43;102794.00;;;1.65;64.39
75497;BME280;64074;47.540;19.072;2022-12-19T11:57:36;102795.16;;;1.93;64.02
75497;BME280;64074;47.540;19.072;2022-12-19T12:00:59;102793.00;;;2.11;63.34
75497;BME280;64074;47.540;19.072;2022-12-19T12:07:39;102787.66;;;1.89;63.51
75497;BME280;64074;47.540;19.072;2022-12-19T12:11:53;102781.09;;;1.68;64.90
75497;BME280;64074;47.540;19.072;2022-12-19T12:27:01;102766.19;;;1.97;64.61
75497;BME280;64074;47.540;19.072;2022-12-19T12:30:55;102775.16;;;1.58;64.67
75497;BME280;64074;47.540;19.072;2022-12-19T12:38:59;102762.78;;;1.57;66.41
75497;BME280;64074;47.540;19.072;2022-12-19T12:42:36;102767.25;;;1.65;65.87
75497;BME280;64074;47.540;19.072;2022-12-19T12:46:27;102780.66;;;1.17;66.35
75497;BME280;64074;47.540;19.072;2022-12-19T12:50:01;102775.81;;;1.29;66.72
75497;BME280;64074;47.540;19.072;2022-12-19T12:53:31;102764.16;;;1.14;66.80
75497;BME280;64074;47.540;19.072;2022-12-19T12:56:47;102765.84;;;1.46;66.64
75497;BME280;64074;47.540;19.072;2022-12-19T13:00:28;102756.50;;;1.50;66.02
75497;BME280;64074;47.540;19.072;2022-12-19T13:03:40;102763.03;;;1.39;66.63
75497;BME280;64074;47.540;19.072;2022-12-19T13:10:27;102755.78;;;0.78;67.73
75497;BME280;64074;47.540;19.072;2022-12-19T13:13:53;102751.94;;;0.72;68.38
75497;BME280;64074;47.540;19.072;2022-12-19T13:17:05;102749.84;;;0.51;68.94
75497;BME280;64074;47.540;19.072;2022-12-19T13:23:42;102750.00;;;0.50;69.18
75497;BME280;64074;47.540;19.072;2022-12-19T13:26:55;102750.94;;;0.73;68.91
75497;BME280;64074;47.540;19.072;2022-12-19T13:30:17;102757.16;;;0.49;69.46
75497;BME280;64074;47.540;19.072;2022-12-19T13:37:27;102732.81;;;0.44;69.33
75497;BME280;64074;47.540;19.072;2022-12-19T13:40:59;102734.94;;;0.65;69.41
75497;BME280;64074;47.540;19.072;2022-12-19T13:44:07;102724.06;;;0.83;67.73
75497;BME280;64074;47.540;19.072;2022-12-19T13:47:14;102727.56;;;0.83;68.68
75497;BME280;64074;47.540;19.072;2022-12-19T13:50:38;102734.84;;;0.98;68.28
75497;BME280;64074;47.540;19.072;2022-12-19T13:53:53;102741.44;;;0.79;68.36
75497;BME280;64074;47.540;19.072;2022-12-19T13:57:02;102748.66;;;0.46;69.35
75497;BME280;64074;47.540;19.072;2022-12-19T14:00:16;102733.47;;;0.46;69.97
75497;BME280;64074;47.540;19.072;2022-12-19T14:03:28;102727.97;;;0.48;69.38
75497;BME280;64074;47.540;19.072;2022-12-19T14:06:45;102726.47;;;0.53;69.47
75497;BME280;64074;47.540;19.072;2022-12-19T14:10:05;102732.97;;;0.59;69.72
75497;BME280;64074;47.540;19.072;2022-12-19T14:13:52;102730.56;;;0.72;69.50
75497;BME280;64074;47.540;19.072;2022-12-19T14:17:32;102724.31;;;0.41;70.13
75497;BME280;64074;47.540;19.072;2022-12-19T14:20:39;102736.84;;;0.32;70.28
75497;BME280;64074;47.540;19.072;2022-12-19T14:24:16;102725.47;;;0.46;70.71
75497;BME280;64074;47.540;19.072;2022-12-19T14:27:21;102728.47;;;0.43;70.34
75497;BME280;64074;47.540;19.072;2022-12-19T14:30:56;102730.19;;;0.28;71.02
75497;BME280;64074;47.540;19.072;2022-12-19T14:34:05;102734.34;;;0.22;71.72
75497;BME280;64074;47.540;19.072;2022-12-19T14:37:34;102723.00;;;0.28;71.60
75497;BME280;64074;47.540;19.072;2022-12-19T14:41:02;102723.50;;;0.16;71.60
75497;BME280;64074;47.540;19.072;2022-12-19T14:44:15;102733.53;;;0.06;72.72
75497;BME280;64074;47.540;19.072;2022-12-19T14:47:42;102732.38;;;0.00;72.84
75497;BME280;64074;47.540;19.072;2022-12-19T14:51:12;102733.00;;;-0.06;71.60
75497;BME280;64074;47.540;19.072;2022-12-19T14:54:41;102732.00;;;-0.13;71.97
75497;BME280;64074;47.540;19.072;2022-12-19T14:58:38;102727.00;;;-0.08;72.86
75497;BME280;64074;47.540;19.072;2022-12-19T15:02:25;102726.00;;;-0.07;72.90
75497;BME280;64074;47.540;19.072;2022-12-19T15:05:41;102728.97;;;-0.26;72.92
75497;BME280;64074;47.540;19.072;2022-12-19T15:09:07;102726.31;;;-0.43;73.75
75497;BME280;64074;47.540;19.072;2022-12-19T15:16:37;102741.31;;;-0.34;73.10
75497;BME280;64074;47.540;19.072;2022-12-19T15:19:54;102748.81;;;-0.29;73.95
75497;BME280;64074;47.540;19.072;2022-12-19T15:23:03;102747.78;;;-0.44;73.97
75497;BME280;64074;47.540;19.072;2022-12-19T15:26:17;102740.63;;;-0.36;74.27
75497;BME280;64074;47.540;19.072;2022-12-19T15:29:25;102737.31;;;-0.38;74.20
75497;BME280;64074;47.540;19.072;2022-12-19T15:32:35;102738.31;;;-0.39;74.33
75497;BME280;64074;47.540;19.072;2022-12-19T15:35:55;102750.97;;;-0.41;74.90
75497;BME280;64074;47.540;19.072;2022-12-19T15:39:15;102746.63;;;-0.42;75.30
75497;BME280;64074;47.540;19.072;2022-12-19T15:42:30;102749.97;;;-0.48;75.74
75497;BME280;64074;47.540;19.072;2022-12-19T15:45:37;102746.09;;;-0.53;76.01
75497;BME280;64074;47.540;19.072;2022-12-19T15:48:43;102733.47;;;-0.43;75.25
75497;BME280;64074;47.540;19.072;2022-12-19T15:51:49;102740.41;;;-0.58;75.73
75497;BME280;64074;47.540;19.072;2022-12-19T15:55:02;102732.13;;;-0.47;76.32
75497;BME280;64074;47.540;19.072;2022-12-19T15:58:09;102732.13;;;-0.47;76.01
75497;BME280;64074;47.540;19.072;2022-12-19T16:01:20;102734.81;;;-0.39;75.48
75497;BME280;64074;47.540;19.072;2022-12-19T16:04:30;102729.94;;;-0.52;75.87
75497;BME280;64074;47.540;19.072;2022-12-19T16:07:33;102726.44;;;-0.52;76.03
75497;BME280;64074;47.540;19.072;2022-12-19T16:10:36;102733.13;;;-0.40;76.35
75497;BME280;64074;47.540;19.072;2022-12-19T16:13:52;102723.31;;;-0.48;76.37
75497;BME280;64074;47.540;19.072;2022-12-19T16:17:24;102722.78;;;-0.51;75.50
75497;BME280;64074;47.540;19.072;2022-12-19T16:20:46;102712.94;;;-0.51;75.70
75497;BME280;64074;47.540;19.072;2022-12-19T16:24:06;102717.94;;;-0.56;76.10
75497;BME280;64074;47.540;19.072;2022-12-19T16:27:22;102712.78;;;-0.66;76.52
75497;BME280;64074;47.540;19.072;2022-12-19T16:30:51;102711.94;;;-0.58;76.59
75497;BME280;64074;47.540;19.072;2022-12-19T16:34:16;102712.66;;;-0.32;75.76
75497;BME280;64074;47.540;19.072;2022-12-19T16:37:25;102713.84;;;-0.18;75.59
75497;BME280;64074;47.540;19.072;2022-12-19T16:40:55;102704.97;;;-0.51;75.62
75497;BME280;64074;47.540;19.072;2022-12-19T16:44:16;102698.50;;;-0.48;75.36
75497;BME280;64074;47.540;19.072;2022-12-19T16:47:44;102685.19;;;-0.40;75.07
75497;BME280;64074;47.540;19.072;2022-12-19T16:51:17;102695.47;;;-0.62;75.67
75497;BME280;64074;47.540;19.072;2022-12-19T16:54:26;102696.47;;;-0.54;75.22
75497;BME280;64074;47.540;19.072;2022-12-19T16:57:54;102696.00;;;-0.34;74.64
75497;BME280;64074;47.540;19.072;2022-12-19T17:01:15;102688.69;;;-0.15;76.77
75497;BME280;64074;47.540;19.072;2022-12-19T17:04:30;102701.69;;;-0.20;74.51
75497;BME280;64074;47.540;19.072;2022-12-19T17:07:39;102699.16;;;-0.30;74.42
75497;BME280;64074;47.540;19.072;2022-12-19T17:11:21;102707.81;;;-0.36;74.41
75497;BME280;64074;47.540;19.072;2022-12-19T17:14:43;102706.50;;;-0.48;74.78
75497;BME280;64074;47.540;19.072;2022-12-19T17:18:13;102703.16;;;-0.26;74.45
75497;BME280;64074;47.540;19.072;2022-12-19T17:21:22;102698.34;;;-0.22;74.15
75497;BME280;64074;47.540;19.072;2022-12-19T17:24:29;102703.31;;;-0.27;74.18
75497;BME280;64074;47.540;19.072;2022-12-19T17:27:32;102706.00;;;-0.36;74.19
75497;BME280;64074;47.540;19.072;2022-12-19T17:30:39;102715.69;;;-0.18;74.33
75497;BME280;64074;47.540;19.072;2022-12-19T17:34:05;102708.34;;;-0.16;74.22
75497;BME280;64074;47.540;19.072;2022-12-19T17:37:22;102709.66;;;-0.28;74.26
75497;BME280;64074;47.540;19.072;2022-12-19T17:40:48;102711.19;;;-0.18;73.70
75497;BME280;64074;47.540;19.072;2022-12-19T17:44:16;102718.00;;;-0.15;73.08
75497;BME280;64074;47.540;19.072;2022-12-19T17:47:38;102717.81;;;-0.38;73.59
75497;BME280;64074;47.540;19.072;2022-12-19T17:51:07;102719.16;;;-0.34;73.64
75497;BME280;64074;47.540;19.072;2022-12-19T17:54:22;102722.50;;;-0.16;73.92
75497;BME280;64074;47.540;19.072;2022-12-19T17:57:32;102713.81;;;-0.26;73.23
75497;BME280;64074;47.540;19.072;2022-12-19T18:01:23;102710.53;;;-0.20;73.26
75497;BME280;64074;47.540;19.072;2022-12-19T18:04:26;102709.50;;;-0.11;73.25
75497;BME280;64074;47.540;19.072;2022-12-19T18:07:36;102708.34;;;0.08;75.42
75497;BME280;64074;47.540;19.072;2022-12-19T18:11:21;102713.00;;;0.14;74.55
75497;BME280;64074;47.540;19.072;2022-12-19T18:14:37;102708.81;;;0.20;72.62
75497;BME280;64074;47.540;19.072;2022-12-19T18:17:59;102709.69;;;0.04;73.73
75497;BME280;64074;47.540;19.072;2022-12-19T18:21:20;102705.31;;;0.19;74.13
75497;BME280;64074;47.540;19.072;2022-12-19T18:24:32;102700.81;;;0.20;74.93
75497;BME280;64074;47.540;19.072;2022-12-19T18:27:41;102718.00;;;0.17;74.71
75497;BME280;64074;47.540;19.072;2022-12-19T18:30:57;102718.84;;;0.26;75.30
75497;BME280;64074;47.540;19.072;2022-12-19T18:34:17;102713.69;;;0.00;72.96
75497;BME280;64074;47.540;19.072;2022-12-19T18:37:27;102711.84;;;-0.24;73.94
75497;BME280;64074;47.540;19.072;2022-12-19T18:40:44;102687.69;;;-0.22;73.52
75497;BME280;64074;47.540;19.072;2022-12-19T18:43:57;102682.00;;;-0.03;72.87
75497;BME280;64074;47.540;19.072;2022-12-19T18:47:03;102677.00;;;0.10;74.04
75497;BME280;64074;47.540;19.072;2022-12-19T18:50:21;102671.69;;;-0.14;73.62
75497;BME280;64074;47.540;19.072;2022-12-19T18:53:32;102657.00;;;-0.51;74.11
75497;BME280;64074;47.540;19.072;2022-12-19T18:56:46;102657.66;;;-0.57;75.25
75497;BME280;64074;47.540;19.072;2022-12-19T18:59:56;102658.66;;;-0.66;75.30
75497;BME280;64074;47.540;19.072;2022-12-19T19:03:29;102649.69;;;-0.57;74.34
75497;BME280;64074;47.540;19.072;2022-12-19T19:06:51;102659.69;;;-0.43;74.31
75497;BME280;64074;47.540;19.072;2022-12-19T19:13:49;102648.69;;;-0.56;74.96
75497;BME280;64074;47.540;19.072;2022-12-19T19:17:04;102648.38;;;-0.20;75.71